createdAt,value
2023-04-07T00:09:14.614Z,7
2023-04-07T01:09:17.415Z,7.1
2023-04-07T01:49:19.093Z,7.1
2023-04-07T01:59:19.273Z,7.2
2023-04-07T02:09:19.605Z,7.1
2023-04-07T02:19:19.995Z,7.2
2023-04-07T02:29:20.190Z,7.2
2023-04-07T02:39:21.092Z,7.2
2023-04-07T02:49:21.647Z,7.2
2023-04-07T02:59:22.116Z,7.2
2023-04-07T03:09:22.869Z,7.3
2023-04-07T03:19:23.110Z,7.3
2023-04-07T03:29:23.760Z,7.3
2023-04-07T03:49:24.404Z,7.2
2023-04-07T04:59:27.646Z,7.1
2023-04-07T05:39:30.720Z,7
2023-04-07T06:19:33.275Z,7.1
2023-04-07T07:19:36.201Z,7.4
2023-04-07T07:29:37.357Z,7.4
2023-04-07T07:39:38.178Z,7.4
2023-04-07T07:49:38.748Z,7.5
2023-04-07T08:29:41.566Z,7.8
2023-04-07T08:59:43.290Z,8.3
2023-04-07T09:19:45.343Z,8.4
2023-04-07T09:39:46.973Z,8.5
2023-04-07T09:49:48.034Z,8.4
2023-04-07T09:59:48.641Z,8.5
2023-04-07T10:49:52.215Z,8.6
2023-04-07T10:59:52.406Z,8.7
2023-04-07T11:19:53.211Z,8.8
2023-04-07T11:29:53.514Z,8.7
2023-04-07T11:39:54.454Z,8.6
2023-04-07T11:49:54.609Z,8.6
2023-04-07T11:59:55.544Z,8.6
2023-04-07T12:09:55.966Z,8.7
2023-04-07T12:19:56.491Z,8.7
2023-04-07T12:29:56.757Z,8.8
2023-04-07T12:39:57.300Z,8.9
2023-04-07T12:49:57.683Z,8.7
2023-04-07T12:59:58.481Z,8.7
2023-04-07T13:09:59.412Z,8.7
2023-04-07T13:19:59.611Z,8.6
2023-04-07T13:29:59.776Z,8.7
2023-04-07T13:40:00.806Z,8.7
2023-04-07T14:00:02.336Z,8.7
2023-04-07T14:10:02.575Z,8.7
2023-04-07T14:20:03.261Z,8.7
2023-04-07T14:30:03.862Z,8.8
2023-04-07T14:40:04.233Z,8.8
2023-04-07T14:50:05.210Z,8.9
2023-04-07T15:00:28.030Z,8.9
2023-04-07T15:10:12.862Z,8.9
2023-04-07T15:30:14.065Z,9
2023-04-07T15:50:15.369Z,9.1
2023-04-07T16:20:17.000Z,9.3
2023-04-07T16:30:17.977Z,9.3
2023-04-07T16:50:19.293Z,9.2
2023-04-07T17:10:20.417Z,9.2
2023-04-07T17:20:21.205Z,9.2
2023-04-07T17:30:21.540Z,9.2
2023-04-07T18:30:24.097Z,8.8
2023-04-07T18:40:24.907Z,8.8
2023-04-07T18:50:25.294Z,8.8
2023-04-07T19:10:26.785Z,8.8
2023-04-07T19:20:27.838Z,8.7
2023-04-07T19:30:28.064Z,8.6
2023-04-07T19:40:28.367Z,8.6
2023-04-07T19:50:28.992Z,8.5
2023-04-07T20:00:30.623Z,8.4
2023-04-07T20:10:29.750Z,8.1
2023-04-07T20:20:30.367Z,7.9
2023-04-07T20:40:31.561Z,7.5
2023-04-07T20:50:31.739Z,7.3
2023-04-07T21:00:32.001Z,7
2023-04-07T21:10:33.037Z,6.8
2023-04-07T21:20:33.723Z,6.5
2023-04-07T21:30:34.668Z,6.3
2023-04-07T21:40:35.240Z,6.1
2023-04-07T21:50:35.506Z,5.9
2023-04-07T22:10:36.661Z,5.5
2023-04-07T22:20:37.555Z,5.2
2023-04-07T22:30:38.263Z,5
2023-04-07T22:40:38.405Z,4.9
2023-04-07T22:50:39.408Z,4.7
2023-04-07T23:00:39.914Z,4.5
2023-04-07T23:10:40.823Z,4.4
2023-04-07T23:20:41.276Z,4.3
2023-04-07T23:30:42.366Z,4.1
2023-04-07T23:40:43.038Z,4
